createdAt,value
2018-12-21T00:00:22.302Z,7.70
2018-12-21T00:01:28.094Z,7.80
2018-12-21T00:02:32.624Z,7.70
2018-12-21T00:03:36.905Z,7.70
2018-12-21T00:04:40.984Z,7.70
2018-12-21T00:05:45.216Z,7.70
2018-12-21T00:06:49.348Z,7.70
2018-12-21T00:07:53.486Z,7.70
2018-12-21T00:08:57.600Z,7.70
2018-12-21T00:10:01.689Z,7.70
2018-12-21T00:11:06.884Z,7.70
2018-12-21T00:12:10.963Z,7.70
2018-12-21T00:13:15.068Z,7.70
2018-12-21T00:14:19.406Z,7.70
2018-12-21T00:15:23.510Z,7.70
2018-12-21T00:16:27.636Z,7.70
2018-12-21T00:17:34.675Z,7.70
2018-12-21T00:18:37.819Z,7.70
2018-12-21T00:19:42.005Z,7.70
2018-12-21T00:20:46.116Z,7.70
2018-12-21T00:21:50.177Z,7.60
2018-12-21T00:22:54.250Z,7.70
2018-12-21T00:23:58.350Z,7.60
2018-12-21T00:25:02.409Z,7.70
2018-12-21T00:26:06.493Z,7.70
2018-12-21T00:27:10.552Z,7.70
2018-12-21T00:28:14.734Z,7.70
2018-12-21T00:29:18.960Z,7.70
2018-12-21T00:30:22.250Z,7.70
2018-12-21T00:31:32.521Z,7.70
2018-12-21T00:32:42.221Z,7.70
2018-12-21T00:33:51.664Z,7.70
2018-12-21T00:35:00.981Z,7.70
2018-12-21T00:36:10.464Z,7.70
2018-12-21T00:37:19.976Z,7.70
2018-12-21T00:38:29.469Z,7.70
2018-12-21T00:39:38.661Z,7.70
2018-12-21T00:40:48.240Z,7.70
2018-12-21T00:41:51.490Z,7.70
2018-12-21T00:43:07.768Z,7.70
2018-12-21T00:44:15.067Z,7.70
2018-12-21T00:45:23.434Z,7.70
2018-12-21T00:46:31.915Z,7.70
2018-12-21T00:47:36.272Z,7.70
2018-12-21T00:48:40.377Z,7.70
2018-12-21T00:49:44.523Z,7.80
2018-12-21T00:50:48.705Z,7.80
2018-12-21T00:51:52.785Z,7.70
2018-12-21T00:52:56.840Z,7.80
2018-12-21T00:54:00.889Z,7.80
2018-12-21T00:55:05.123Z,7.80
2018-12-21T00:56:09.551Z,7.80
2018-12-21T00:57:13.586Z,7.80
2018-12-21T00:58:17.674Z,7.80
2018-12-21T00:59:21.779Z,7.90
2018-12-21T01:00:26.992Z,7.80
2018-12-21T01:01:31.075Z,7.90
2018-12-21T01:02:35.303Z,7.90
2018-12-21T01:03:39.742Z,7.90
2018-12-21T01:04:43.930Z,7.90
2018-12-21T01:05:48.156Z,7.90
2018-12-21T01:06:53.172Z,7.90
2018-12-21T01:07:57.387Z,7.90
2018-12-21T01:09:01.594Z,7.80
2018-12-21T01:10:09.994Z,7.90
2018-12-21T01:11:14.239Z,7.90
2018-12-21T01:12:18.688Z,7.90
2018-12-21T01:13:23.687Z,7.90
2018-12-21T01:14:28.931Z,7.80
2018-12-21T01:15:33.089Z,7.90
2018-12-21T01:16:37.221Z,7.90
2018-12-21T01:17:42.696Z,7.90
2018-12-21T01:18:46.790Z,7.90
2018-12-21T01:19:50.880Z,7.90
2018-12-21T01:20:56.302Z,7.90
2018-12-21T01:22:00.422Z,7.90
2018-12-21T01:23:04.529Z,7.90
2018-12-21T01:24:08.725Z,7.90
2018-12-21T01:25:13.426Z,7.90
2018-12-21T01:26:17.631Z,7.90
2018-12-21T01:27:21.734Z,7.90
2018-12-21T01:28:25.935Z,7.90
2018-12-21T01:29:30.337Z,7.90
2018-12-21T01:30:34.483Z,7.90
2018-12-21T01:31:38.569Z,7.90
2018-12-21T01:32:43.903Z,7.90
2018-12-21T01:33:48.212Z,8.00
2018-12-21T01:34:52.284Z,8.00
2018-12-21T01:35:56.328Z,8.00
2018-12-21T01:37:00.896Z,8.00
2018-12-21T01:38:05.047Z,8.00
2018-12-21T01:39:09.139Z,8.00
2018-12-21T01:40:13.995Z,8.00
2018-12-21T01:41:18.062Z,8.00
2018-12-21T01:42:22.198Z,8.00
2018-12-21T01:43:26.309Z,8.00
2018-12-21T01:44:30.641Z,8.00
2018-12-21T01:45:34.712Z,8.00
2018-12-21T01:46:38.845Z,8.00
2018-12-21T01:47:43.255Z,8.00
2018-12-21T01:48:47.536Z,8.00
2018-12-21T01:49:51.552Z,8.00
2018-12-21T01:50:55.737Z,8.00
2018-12-21T01:51:59.830Z,8.00
2018-12-21T01:53:03.966Z,8.00
2018-12-21T01:54:08.038Z,8.00
2018-12-21T01:55:12.101Z,8.00
2018-12-21T01:56:16.212Z,8.00
2018-12-21T01:57:20.305Z,8.00
2018-12-21T01:58:24.467Z,8.00
2018-12-21T01:59:28.597Z,8.00
2018-12-21T02:00:32.821Z,7.90
2018-12-21T02:01:36.970Z,8.00
2018-12-21T02:02:40.997Z,8.00
2018-12-21T02:03:45.121Z,8.00
2018-12-21T02:04:49.578Z,8.00
2018-12-21T02:05:53.686Z,8.00
2018-12-21T02:06:57.864Z,8.00
2018-12-21T02:08:01.980Z,8.00
2018-12-21T02:09:07.432Z,8.00
2018-12-21T02:10:11.732Z,8.00
2018-12-21T02:11:15.915Z,8.00
2018-12-21T02:12:20.051Z,8.00
2018-12-21T02:13:24.213Z,8.00
2018-12-21T02:14:28.305Z,8.00
2018-12-21T02:15:32.438Z,8.00
2018-12-21T02:16:36.503Z,8.00
2018-12-21T02:17:40.569Z,8.00
2018-12-21T02:18:44.637Z,8.00
2018-12-21T02:19:48.758Z,8.00
2018-12-21T02:20:53.195Z,8.00
2018-12-21T02:21:57.293Z,8.00
2018-12-21T02:23:01.392Z,8.00
2018-12-21T02:24:05.575Z,8.10
2018-12-21T02:25:09.723Z,8.10
2018-12-21T02:26:13.914Z,8.10
2018-12-21T02:27:17.976Z,8.10
2018-12-21T02:28:22.027Z,8.00
2018-12-21T02:29:26.180Z,8.10
2018-12-21T02:30:30.211Z,8.00
2018-12-21T02:31:34.393Z,8.10
2018-12-21T02:32:38.546Z,8.10
2018-12-21T02:33:42.638Z,8.10
2018-12-21T02:34:46.728Z,8.10
2018-12-21T02:35:50.875Z,8.10
2018-12-21T02:36:56.150Z,8.10
2018-12-21T02:38:00.235Z,8.10
2018-12-21T02:39:06.528Z,8.10
2018-12-21T02:40:10.767Z,8.10
2018-12-21T02:41:14.801Z,8.10
2018-12-21T02:42:19.174Z,8.10
2018-12-21T02:43:23.240Z,8.10
2018-12-21T02:44:27.315Z,8.10
2018-12-21T02:45:31.489Z,8.10
2018-12-21T02:46:35.619Z,8.10
2018-12-21T02:47:39.691Z,8.10
2018-12-21T02:48:43.866Z,8.10
2018-12-21T02:49:47.930Z,8.10
2018-12-21T02:50:52.041Z,8.10
2018-12-21T02:52:05.207Z,8.10
2018-12-21T02:53:02.365Z,8.20
2018-12-21T02:54:06.416Z,8.20
2018-12-21T02:55:10.494Z,8.20
2018-12-21T02:56:14.541Z,8.20
2018-12-21T02:57:18.587Z,8.20
2018-12-21T02:58:22.725Z,8.20
2018-12-21T02:59:26.802Z,8.20
2018-12-21T03:00:30.980Z,8.20
2018-12-21T03:01:35.043Z,8.20
2018-12-21T03:02:39.093Z,8.30
2018-12-21T03:03:43.191Z,8.30
2018-12-21T03:04:47.238Z,8.30
2018-12-21T03:05:53.541Z,8.30
2018-12-21T03:06:58.858Z,8.30
2018-12-21T03:08:02.937Z,8.30
2018-12-21T03:09:09.890Z,8.30
2018-12-21T03:10:14.151Z,8.30
2018-12-21T03:11:18.360Z,8.30
2018-12-21T03:12:22.547Z,8.30
2018-12-21T03:13:26.819Z,8.20
2018-12-21T03:14:30.935Z,8.30
2018-12-21T03:15:35.682Z,8.30
2018-12-21T03:16:39.847Z,8.30
2018-12-21T03:17:43.979Z,8.30
2018-12-21T03:18:49.127Z,8.30
2018-12-21T03:19:53.888Z,8.30
2018-12-21T03:20:58.054Z,8.30
2018-12-21T03:22:02.202Z,8.30
2018-12-21T03:23:06.454Z,8.20
2018-12-21T03:24:10.635Z,8.20
2018-12-21T03:25:14.704Z,8.20
2018-12-21T03:26:18.795Z,8.20
2018-12-21T03:27:22.843Z,8.20
2018-12-21T03:28:27.046Z,8.20
2018-12-21T03:29:31.958Z,8.20
2018-12-21T03:30:36.033Z,8.20
2018-12-21T03:31:40.390Z,8.20
2018-12-21T03:32:44.497Z,8.20
2018-12-21T03:33:48.725Z,8.10
2018-12-21T03:34:52.776Z,8.10
2018-12-21T03:35:56.887Z,8.10
2018-12-21T03:37:00.955Z,8.20
2018-12-21T03:38:04.998Z,8.10
2018-12-21T03:39:10.189Z,8.10
2018-12-21T03:40:14.312Z,8.10
2018-12-21T03:41:18.347Z,8.10
2018-12-21T03:42:22.384Z,8.10
2018-12-21T03:43:26.413Z,8.10
2018-12-21T03:44:30.516Z,8.00
2018-12-21T03:45:34.644Z,8.00
2018-12-21T03:46:38.751Z,8.00
2018-12-21T03:47:42.817Z,8.00
2018-12-21T03:48:47.139Z,8.00
2018-12-21T03:49:51.267Z,8.00
2018-12-21T03:50:55.374Z,8.00
2018-12-21T03:51:59.521Z,8.00
2018-12-21T03:53:03.568Z,8.00
2018-12-21T03:54:07.632Z,8.00
2018-12-21T03:55:13.625Z,7.90
2018-12-21T03:56:17.676Z,7.90
2018-12-21T03:57:21.743Z,7.90
2018-12-21T03:58:25.756Z,7.90
2018-12-21T03:59:29.931Z,8.00
2018-12-21T04:00:33.984Z,7.90
2018-12-21T04:01:38.033Z,7.90
2018-12-21T04:02:42.099Z,7.90
2018-12-21T04:03:46.367Z,7.90
2018-12-21T04:04:50.449Z,7.90
2018-12-21T04:05:54.573Z,7.90
2018-12-21T04:06:58.638Z,7.90
2018-12-21T04:08:02.737Z,7.90
2018-12-21T04:09:07.473Z,7.90
2018-12-21T04:10:11.559Z,7.90
2018-12-21T04:11:15.761Z,7.90
2018-12-21T04:12:26.534Z,7.90
2018-12-21T04:13:30.586Z,7.90
2018-12-21T04:14:34.690Z,7.90
2018-12-21T04:15:38.870Z,7.90
2018-12-21T04:16:43.091Z,7.90
2018-12-21T04:17:47.235Z,7.90
2018-12-21T04:18:51.268Z,7.90
2018-12-21T04:19:55.351Z,7.90
2018-12-21T04:20:59.404Z,7.90
2018-12-21T04:22:03.416Z,7.90
2018-12-21T04:23:07.536Z,7.90
2018-12-21T04:24:11.624Z,7.90
2018-12-21T04:25:15.681Z,7.90
2018-12-21T04:26:19.810Z,7.90
2018-12-21T04:27:23.877Z,7.90
2018-12-21T04:28:29.307Z,7.90
2018-12-21T04:29:33.392Z,7.90
2018-12-21T04:30:37.418Z,7.90
2018-12-21T04:31:41.538Z,7.90
2018-12-21T04:32:45.597Z,7.90
2018-12-21T04:33:49.626Z,7.90
2018-12-21T04:34:53.675Z,7.90
2018-12-21T04:35:57.703Z,7.90
2018-12-21T04:37:01.741Z,7.90
2018-12-21T04:38:05.777Z,7.90
2018-12-21T04:39:09.877Z,7.90
2018-12-21T04:40:13.897Z,7.90
2018-12-21T04:41:17.981Z,7.90
2018-12-21T04:42:22.031Z,7.90
2018-12-21T04:43:26.084Z,7.90
2018-12-21T04:44:30.141Z,8.00
2018-12-21T04:45:34.238Z,8.00
2018-12-21T04:46:38.708Z,8.00
2018-12-21T04:47:42.737Z,8.00
2018-12-21T04:48:46.755Z,8.00
2018-12-21T04:49:50.821Z,7.90
2018-12-21T04:50:54.909Z,8.00
2018-12-21T04:51:59.007Z,8.00
2018-12-21T04:53:03.141Z,8.00
2018-12-21T04:54:07.170Z,8.00
2018-12-21T04:55:12.266Z,8.00
2018-12-21T04:56:16.316Z,8.00
2018-12-21T04:57:20.388Z,8.00
2018-12-21T04:58:24.559Z,8.00
2018-12-21T04:59:28.666Z,8.00
2018-12-21T05:00:32.759Z,8.00
2018-12-21T05:01:36.854Z,8.10
2018-12-21T05:02:40.991Z,8.00
2018-12-21T05:03:45.049Z,8.10
2018-12-21T05:04:49.081Z,8.10
2018-12-21T05:05:53.170Z,8.10
2018-12-21T05:06:57.250Z,8.10
2018-12-21T05:08:01.368Z,8.10
2018-12-21T05:09:06.651Z,8.20
2018-12-21T05:10:10.883Z,8.20
2018-12-21T05:11:15.065Z,8.20
2018-12-21T05:12:19.183Z,8.20
2018-12-21T05:13:23.270Z,8.20
2018-12-21T05:14:27.387Z,8.20
2018-12-21T05:15:31.439Z,8.20
2018-12-21T05:16:35.506Z,8.20
2018-12-21T05:17:39.628Z,8.30
2018-12-21T05:18:43.658Z,8.30
2018-12-21T05:19:47.799Z,8.30
2018-12-21T05:20:51.932Z,8.30
2018-12-21T05:21:56.100Z,8.30
2018-12-21T05:23:00.177Z,8.40
2018-12-21T05:24:04.236Z,8.40
2018-12-21T05:25:08.296Z,8.30
2018-12-21T05:26:12.371Z,8.40
2018-12-21T05:27:16.595Z,8.40
2018-12-21T05:28:20.663Z,8.40
2018-12-21T05:29:24.748Z,8.40
2018-12-21T05:30:28.826Z,8.40
2018-12-21T05:31:32.857Z,8.40
2018-12-21T05:32:38.115Z,8.40
2018-12-21T05:33:42.176Z,8.40
2018-12-21T05:34:46.218Z,8.40
2018-12-21T05:35:50.352Z,8.40
2018-12-21T05:36:54.429Z,8.40
2018-12-21T05:37:58.496Z,8.40
2018-12-21T05:39:02.543Z,8.40
2018-12-21T05:40:06.902Z,8.40
2018-12-21T05:41:10.971Z,8.40
2018-12-21T05:42:15.052Z,8.50
2018-12-21T05:43:19.137Z,8.50
2018-12-21T05:44:23.226Z,8.50
2018-12-21T05:45:27.318Z,8.50
2018-12-21T05:46:31.392Z,8.40
2018-12-21T05:47:35.444Z,8.40
2018-12-21T05:48:39.523Z,8.40
2018-12-21T05:49:43.585Z,8.40
2018-12-21T05:50:47.715Z,8.40
2018-12-21T05:51:51.805Z,8.40
2018-12-21T05:53:00.767Z,8.40
2018-12-21T05:54:02.077Z,8.30
2018-12-21T05:55:06.270Z,8.30
2018-12-21T05:56:10.377Z,8.30
2018-12-21T05:57:14.411Z,8.20
2018-12-21T05:58:18.474Z,8.20
2018-12-21T05:59:22.528Z,8.20
2018-12-21T06:00:26.598Z,8.20
2018-12-21T06:01:30.643Z,8.20
2018-12-21T06:02:34.708Z,8.20
2018-12-21T06:03:38.731Z,8.20
2018-12-21T06:04:42.791Z,8.20
2018-12-21T06:05:46.933Z,8.20
2018-12-21T06:06:50.985Z,8.20
2018-12-21T06:07:55.056Z,8.20
2018-12-21T06:08:59.166Z,8.20
2018-12-21T06:10:03.688Z,8.20
2018-12-21T06:11:07.695Z,8.20
2018-12-21T06:12:11.726Z,8.20
2018-12-21T06:13:15.832Z,8.30
2018-12-21T06:14:19.849Z,8.30
2018-12-21T06:15:23.956Z,8.30
2018-12-21T06:16:28.076Z,8.30
2018-12-21T06:17:32.177Z,8.30
2018-12-21T06:18:36.289Z,8.30
2018-12-21T06:19:40.313Z,8.40
2018-12-21T06:20:44.527Z,8.40
2018-12-21T06:21:48.607Z,8.40
2018-12-21T06:22:52.682Z,8.40
2018-12-21T06:23:56.750Z,8.40
2018-12-21T06:25:00.803Z,8.40
2018-12-21T06:26:04.836Z,8.40
2018-12-21T06:27:08.972Z,8.40
2018-12-21T06:28:13.051Z,8.50
2018-12-21T06:29:17.062Z,8.50
2018-12-21T06:30:21.077Z,8.50
2018-12-21T06:31:25.194Z,8.50
2018-12-21T06:32:29.253Z,8.50
2018-12-21T06:33:34.336Z,8.50
2018-12-21T06:34:38.473Z,8.50
2018-12-21T06:35:42.583Z,8.50
2018-12-21T06:36:46.790Z,8.50
2018-12-21T06:37:50.965Z,8.50
2018-12-21T06:38:56.202Z,8.50
2018-12-21T06:40:01.679Z,8.50
2018-12-21T06:41:06.325Z,8.50
2018-12-21T06:42:11.169Z,8.50
2018-12-21T06:43:15.305Z,8.50
2018-12-21T06:44:19.343Z,8.50
2018-12-21T06:45:23.394Z,8.50
2018-12-21T06:46:27.424Z,8.50
2018-12-21T06:47:31.468Z,8.50
2018-12-21T06:48:35.786Z,8.50
2018-12-21T06:49:39.808Z,8.50
2018-12-21T06:50:43.864Z,8.50
2018-12-21T06:51:47.860Z,8.50
2018-12-21T06:52:51.923Z,8.50
2018-12-21T06:53:55.970Z,8.50
2018-12-21T06:54:59.993Z,8.50
2018-12-21T06:56:04.185Z,8.50
2018-12-21T06:57:08.262Z,8.50
2018-12-21T06:58:12.352Z,8.40
2018-12-21T06:59:16.561Z,8.50
2018-12-21T07:00:20.713Z,8.40
2018-12-21T07:01:24.744Z,8.50
2018-12-21T07:02:28.818Z,8.40
2018-12-21T07:03:32.960Z,8.50
2018-12-21T07:04:37.151Z,8.50
2018-12-21T07:05:41.182Z,8.40
2018-12-21T07:06:45.210Z,8.50
2018-12-21T07:07:49.349Z,8.40
2018-12-21T07:08:53.370Z,8.40
2018-12-21T07:09:57.431Z,8.40
2018-12-21T07:11:01.503Z,8.40
2018-12-21T07:12:05.554Z,8.40
2018-12-21T07:13:09.639Z,8.40
2018-12-21T07:14:13.723Z,8.40
2018-12-21T07:15:17.791Z,8.40
2018-12-21T07:16:21.881Z,8.40
2018-12-21T07:17:25.899Z,8.40
2018-12-21T07:18:29.975Z,8.30
2018-12-21T07:19:34.016Z,8.30
2018-12-21T07:20:38.193Z,8.30
2018-12-21T07:21:42.344Z,8.30
2018-12-21T07:22:46.373Z,8.30
2018-12-21T07:23:50.397Z,8.30
2018-12-21T07:24:54.466Z,8.30
2018-12-21T07:25:58.457Z,8.30
2018-12-21T07:27:02.476Z,8.30
2018-12-21T07:28:06.493Z,8.30
2018-12-21T07:29:10.645Z,8.30
2018-12-21T07:30:14.641Z,8.30
2018-12-21T07:31:18.787Z,8.30
2018-12-21T07:32:22.833Z,8.20
2018-12-21T07:33:26.857Z,8.20
2018-12-21T07:34:30.896Z,8.20
2018-12-21T07:35:34.923Z,8.20
2018-12-21T07:36:38.919Z,8.20
2018-12-21T07:37:42.962Z,8.20
2018-12-21T07:38:46.999Z,8.20
2018-12-21T07:39:51.056Z,8.20
2018-12-21T07:40:55.084Z,8.20
2018-12-21T07:41:59.091Z,8.20
2018-12-21T07:43:03.126Z,8.20
2018-12-21T07:44:07.132Z,8.20
2018-12-21T07:45:11.566Z,8.20
2018-12-21T07:46:15.586Z,8.30
2018-12-21T07:47:19.578Z,8.30
2018-12-21T07:48:23.603Z,8.30
2018-12-21T07:49:27.651Z,8.30
2018-12-21T07:50:31.672Z,8.30
2018-12-21T07:51:35.738Z,8.30
2018-12-21T07:52:39.769Z,8.30
2018-12-21T07:54:54.158Z,8.30
2018-12-21T07:55:58.142Z,8.30
2018-12-21T07:57:02.181Z,8.30
2018-12-21T07:58:06.193Z,8.30
2018-12-21T07:59:10.205Z,8.30
2018-12-21T08:00:14.275Z,8.30
2018-12-21T08:01:18.276Z,8.40
2018-12-21T08:02:22.337Z,8.30
2018-12-21T08:03:26.439Z,8.30
2018-12-21T08:04:30.586Z,8.40
2018-12-21T08:05:34.616Z,8.40
2018-12-21T08:06:38.791Z,8.40
2018-12-21T08:07:42.917Z,8.40
2018-12-21T08:08:46.979Z,8.40
2018-12-21T08:09:51.115Z,8.40
2018-12-21T08:10:55.186Z,8.30
2018-12-21T08:11:59.329Z,8.40
2018-12-21T08:13:03.383Z,8.40
2018-12-21T08:14:07.464Z,8.30
2018-12-21T08:15:11.533Z,8.40
2018-12-21T08:16:15.668Z,8.40
2018-12-21T08:17:26.483Z,8.40
2018-12-21T08:18:30.555Z,8.40
2018-12-21T08:19:34.597Z,8.40
2018-12-21T08:20:38.700Z,8.40
2018-12-21T08:21:42.782Z,8.30
2018-12-21T08:22:46.856Z,8.30
2018-12-21T08:23:50.995Z,8.30
2018-12-21T08:24:55.129Z,8.30
2018-12-21T08:25:59.155Z,8.30
2018-12-21T08:27:03.383Z,8.30
2018-12-21T08:28:07.565Z,8.30
2018-12-21T08:29:12.646Z,8.30
2018-12-21T08:30:16.767Z,8.30
2018-12-21T08:31:20.856Z,8.30
2018-12-21T08:32:24.987Z,8.40
2018-12-21T08:33:29.157Z,8.40
2018-12-21T08:34:33.263Z,8.40
2018-12-21T08:35:37.303Z,8.40
2018-12-21T08:36:41.362Z,8.40
2018-12-21T08:37:45.432Z,8.40
2018-12-21T08:38:49.494Z,8.40
2018-12-21T08:39:53.566Z,8.40
2018-12-21T08:40:59.166Z,8.40
2018-12-21T08:42:03.227Z,8.40
2018-12-21T08:43:07.244Z,8.40
2018-12-21T08:44:12.149Z,8.40
2018-12-21T08:45:16.189Z,8.40
2018-12-21T08:46:20.325Z,8.40
2018-12-21T08:47:24.321Z,8.40
2018-12-21T08:48:28.354Z,8.40
2018-12-21T08:49:32.458Z,8.50
2018-12-21T08:50:36.478Z,8.50
2018-12-21T08:51:40.547Z,8.50
2018-12-21T08:52:44.584Z,8.50
2018-12-21T08:53:52.480Z,8.50
2018-12-21T08:54:54.680Z,8.50
2018-12-21T08:55:58.679Z,8.50
2018-12-21T08:57:02.735Z,8.50
2018-12-21T08:58:06.836Z,8.60
2018-12-21T08:59:10.917Z,8.60
2018-12-21T09:00:14.976Z,8.60
2018-12-21T09:01:19.123Z,8.60
2018-12-21T09:02:23.159Z,8.70
2018-12-21T09:03:27.317Z,8.70
2018-12-21T09:04:32.329Z,8.70
2018-12-21T09:05:36.752Z,8.70
2018-12-21T09:06:40.894Z,8.70
2018-12-21T09:07:44.959Z,8.70
2018-12-21T09:08:48.977Z,8.70
2018-12-21T09:09:53.019Z,8.70
2018-12-21T09:10:57.017Z,8.70
2018-12-21T09:12:01.041Z,8.80
2018-12-21T09:13:05.124Z,8.80
2018-12-21T09:14:09.245Z,8.80
2018-12-21T09:15:16.880Z,8.80
2018-12-21T09:16:27.608Z,8.80
2018-12-21T09:17:31.767Z,8.80
2018-12-21T09:18:35.860Z,8.80
2018-12-21T09:19:39.922Z,8.80
2018-12-21T09:20:44.003Z,8.90
2018-12-21T09:21:48.033Z,8.90
2018-12-21T09:22:52.074Z,8.90
2018-12-21T09:24:01.076Z,8.90
2018-12-21T09:25:02.199Z,8.90
2018-12-21T09:26:06.385Z,8.90
2018-12-21T09:27:10.427Z,8.90
2018-12-21T09:28:14.469Z,9.00
2018-12-21T09:29:18.552Z,8.90
2018-12-21T09:30:22.713Z,9.00
2018-12-21T09:31:27.071Z,9.00
2018-12-21T09:32:33.954Z,9.00
2018-12-21T09:33:38.078Z,9.00
2018-12-21T09:34:42.308Z,9.10
2018-12-21T09:35:46.357Z,9.10
2018-12-21T09:36:52.738Z,9.10
2018-12-21T09:37:56.795Z,9.10
2018-12-21T09:39:02.074Z,9.10
2018-12-21T09:40:10.004Z,9.10
2018-12-21T09:41:15.048Z,9.10
2018-12-21T09:42:22.139Z,9.10
2018-12-21T09:43:26.269Z,9.10
2018-12-21T09:44:30.265Z,9.10
2018-12-21T09:45:34.351Z,9.10
2018-12-21T09:46:41.429Z,9.10
2018-12-21T09:47:45.608Z,9.10
2018-12-21T09:48:49.712Z,9.10
2018-12-21T09:49:53.879Z,9.10
2018-12-21T09:50:59.279Z,9.10
2018-12-21T09:52:03.332Z,9.20
2018-12-21T09:53:07.487Z,9.20
2018-12-21T09:54:11.580Z,9.20
2018-12-21T09:55:15.790Z,9.10
2018-12-21T09:56:20.160Z,9.20
2018-12-21T09:58:37.865Z,9.20
2018-12-21T09:59:41.900Z,9.20
2018-12-21T10:00:46.255Z,9.20
2018-12-21T10:01:50.295Z,9.20
2018-12-21T10:02:54.328Z,9.20
2018-12-21T10:03:58.395Z,9.20
2018-12-21T10:05:02.600Z,9.20
2018-12-21T10:06:06.707Z,9.20
2018-12-21T10:07:10.793Z,9.20
2018-12-21T10:08:14.832Z,9.20
2018-12-21T10:09:18.913Z,9.20
2018-12-21T10:10:22.964Z,9.20
2018-12-21T10:11:27.081Z,9.20
2018-12-21T10:12:31.154Z,9.20
2018-12-21T10:13:35.322Z,9.20
2018-12-21T10:14:39.404Z,9.20
2018-12-21T10:15:43.668Z,9.20
2018-12-21T10:16:47.770Z,9.20
2018-12-21T10:17:51.864Z,9.20
2018-12-21T10:18:55.929Z,9.20
2018-12-21T10:20:00.088Z,9.20
2018-12-21T10:21:04.181Z,9.20
2018-12-21T10:22:08.233Z,9.20
2018-12-21T10:23:12.378Z,9.20
2018-12-21T10:24:18.637Z,9.20
2018-12-21T10:25:22.426Z,9.20
2018-12-21T10:26:26.492Z,9.20
2018-12-21T10:27:31.524Z,9.20
2018-12-21T10:28:35.562Z,9.20
2018-12-21T10:29:39.607Z,9.20
2018-12-21T10:30:43.693Z,9.20
2018-12-21T10:31:47.891Z,9.20
2018-12-21T10:32:52.080Z,9.30
2018-12-21T10:33:56.208Z,9.30
2018-12-21T10:35:00.308Z,9.30
2018-12-21T10:36:04.563Z,9.30
2018-12-21T10:37:08.694Z,9.30
2018-12-21T10:38:12.834Z,9.30
2018-12-21T10:39:17.100Z,9.30
2018-12-21T10:40:21.226Z,9.30
2018-12-21T10:41:25.507Z,9.30
2018-12-21T10:42:29.673Z,9.30
2018-12-21T10:43:33.796Z,9.40
2018-12-21T10:44:37.909Z,9.40
2018-12-21T10:45:42.026Z,9.40
2018-12-21T10:46:46.155Z,9.40
2018-12-21T10:47:50.355Z,9.30
2018-12-21T10:48:54.477Z,9.30
2018-12-21T10:49:58.714Z,9.40
2018-12-21T10:51:02.829Z,9.40
2018-12-21T10:52:06.963Z,9.40
2018-12-21T10:53:11.079Z,9.40
2018-12-21T10:54:15.193Z,9.40
2018-12-21T10:55:19.348Z,9.40
2018-12-21T10:56:23.464Z,9.40
2018-12-21T10:57:27.652Z,9.40
2018-12-21T10:58:31.737Z,9.50
2018-12-21T10:59:43.161Z,9.50
2018-12-21T11:00:42.483Z,9.50
2018-12-21T11:01:46.693Z,9.60
2018-12-21T11:02:51.506Z,9.60
2018-12-21T11:03:55.551Z,9.60
2018-12-21T11:04:59.640Z,9.60
2018-12-21T11:06:03.860Z,9.60
2018-12-21T11:07:08.147Z,9.60
2018-12-21T11:08:12.959Z,9.60
2018-12-21T11:09:17.058Z,9.60
2018-12-21T11:10:21.076Z,9.70
2018-12-21T11:11:25.157Z,9.70
2018-12-21T11:12:29.319Z,9.80
2018-12-21T11:13:33.459Z,9.80
2018-12-21T11:14:37.584Z,9.80
2018-12-21T11:15:41.716Z,9.80
2018-12-21T11:16:45.874Z,9.80
2018-12-21T11:17:50.085Z,9.80
2018-12-21T11:18:54.301Z,9.90
2018-12-21T11:19:58.408Z,9.90
2018-12-21T11:21:02.641Z,9.90
2018-12-21T11:22:06.854Z,9.90
2018-12-21T11:23:11.166Z,9.90
2018-12-21T11:24:15.333Z,9.90
2018-12-21T11:25:19.456Z,9.90
2018-12-21T11:26:23.615Z,9.90
2018-12-21T11:27:27.786Z,9.90
2018-12-21T11:28:31.865Z,9.90
2018-12-21T11:29:36.070Z,10.00
2018-12-21T11:30:40.169Z,10.00
2018-12-21T11:31:44.272Z,10.00
2018-12-21T11:32:48.381Z,10.00
2018-12-21T11:33:52.641Z,10.10
2018-12-21T11:34:56.769Z,10.10
2018-12-21T11:36:00.956Z,10.10
2018-12-21T11:37:05.125Z,10.10
2018-12-21T11:38:09.241Z,10.10
2018-12-21T11:39:13.440Z,10.20
2018-12-21T11:40:17.485Z,10.20
2018-12-21T11:41:21.614Z,10.20
2018-12-21T11:42:25.721Z,10.20
2018-12-21T11:43:29.797Z,10.30
2018-12-21T11:44:33.881Z,10.30
2018-12-21T11:45:38.040Z,10.30
2018-12-21T11:46:42.130Z,10.30
2018-12-21T11:47:46.302Z,10.40
2018-12-21T11:48:50.467Z,10.40
2018-12-21T11:49:54.645Z,10.40
2018-12-21T11:50:59.833Z,10.40
2018-12-21T11:52:04.044Z,10.50
2018-12-21T11:53:08.176Z,10.40
2018-12-21T11:54:12.281Z,10.50
2018-12-21T11:55:16.594Z,10.50
2018-12-21T11:56:20.699Z,10.50
2018-12-21T11:57:24.799Z,10.50
2018-12-21T11:58:28.979Z,10.60
2018-12-21T11:59:33.031Z,10.60
2018-12-21T12:00:37.295Z,10.60
2018-12-21T12:01:41.528Z,10.60
2018-12-21T12:02:45.643Z,10.70
2018-12-21T12:03:49.787Z,10.70
2018-12-21T12:04:53.928Z,10.70
2018-12-21T12:05:58.187Z,10.70
2018-12-21T12:07:02.298Z,10.70
2018-12-21T12:08:06.411Z,10.70
2018-12-21T12:09:10.709Z,10.80
2018-12-21T12:10:14.810Z,10.80
2018-12-21T12:11:18.954Z,10.80
2018-12-21T12:12:23.029Z,10.80
2018-12-21T12:13:27.172Z,10.80
2018-12-21T12:14:31.286Z,10.90
2018-12-21T12:15:35.558Z,10.90
2018-12-21T12:16:39.680Z,10.90
2018-12-21T12:17:43.780Z,10.90
2018-12-21T12:18:47.949Z,10.90
2018-12-21T12:19:52.074Z,11.00
2018-12-21T12:20:56.298Z,11.00
2018-12-21T12:22:00.554Z,11.00
2018-12-21T12:23:04.610Z,11.00
2018-12-21T12:24:08.718Z,11.10
2018-12-21T12:25:13.011Z,11.10
2018-12-21T12:26:17.214Z,11.10
2018-12-21T12:27:21.416Z,11.10
2018-12-21T12:28:26.224Z,11.20
2018-12-21T12:29:30.329Z,11.20
2018-12-21T12:30:34.585Z,11.20
2018-12-21T12:31:39.747Z,11.30
2018-12-21T12:32:43.862Z,11.30
2018-12-21T12:33:48.033Z,11.30
2018-12-21T12:34:52.189Z,11.30
2018-12-21T12:35:57.474Z,11.30
2018-12-21T12:37:02.692Z,11.30
2018-12-21T12:38:06.885Z,11.40
2018-12-21T12:39:11.799Z,11.40
2018-12-21T12:40:16.012Z,11.40
2018-12-21T12:41:20.299Z,11.50
2018-12-21T12:42:24.456Z,11.50
2018-12-21T12:43:28.545Z,11.50
2018-12-21T12:44:33.603Z,11.50
2018-12-21T12:45:37.692Z,11.50
2018-12-21T12:46:41.817Z,11.50
2018-12-21T12:47:45.958Z,11.60
2018-12-21T12:48:50.089Z,11.60
2018-12-21T12:49:54.202Z,11.60
2018-12-21T12:50:58.607Z,11.70
2018-12-21T12:52:02.734Z,11.70
2018-12-21T12:53:06.943Z,11.70
2018-12-21T12:54:11.169Z,11.80
2018-12-21T12:55:15.391Z,11.80
2018-12-21T12:56:19.501Z,11.80
2018-12-21T12:57:24.820Z,11.80
2018-12-21T12:58:28.907Z,11.80
2018-12-21T12:59:33.088Z,11.90
2018-12-21T13:00:37.477Z,11.90
2018-12-21T13:01:41.917Z,11.90
2018-12-21T13:02:46.047Z,11.90
2018-12-21T13:03:50.162Z,11.90
2018-12-21T13:04:54.295Z,11.90
2018-12-21T13:05:58.402Z,11.90
2018-12-21T13:07:02.523Z,12.00
2018-12-21T13:08:06.637Z,12.00
2018-12-21T13:09:11.741Z,12.00
2018-12-21T13:10:15.818Z,12.10
2018-12-21T13:11:19.935Z,12.10
2018-12-21T13:12:24.021Z,12.10
2018-12-21T13:13:28.080Z,12.10
2018-12-21T13:14:32.223Z,12.10
2018-12-21T13:15:36.881Z,12.10
2018-12-21T13:16:41.091Z,12.20
2018-12-21T13:17:45.191Z,12.20
2018-12-21T13:18:49.308Z,12.20
2018-12-21T13:19:53.404Z,12.30
2018-12-21T13:20:57.473Z,12.30
2018-12-21T13:22:01.677Z,12.30
2018-12-21T13:23:05.739Z,12.30
2018-12-21T13:24:09.775Z,12.30
2018-12-21T13:25:14.018Z,12.30
2018-12-21T13:26:19.043Z,12.30
2018-12-21T13:27:24.169Z,12.40
2018-12-21T13:28:28.270Z,12.40
2018-12-21T13:29:32.367Z,12.40
2018-12-21T13:30:37.167Z,12.40
2018-12-21T13:31:41.403Z,12.40
2018-12-21T13:32:45.467Z,12.40
2018-12-21T13:33:49.535Z,12.40
2018-12-21T13:34:54.432Z,12.40
2018-12-21T13:35:59.660Z,12.40
2018-12-21T13:37:04.587Z,12.50
2018-12-21T13:38:08.690Z,12.50
2018-12-21T13:39:12.794Z,12.50
2018-12-21T13:40:16.965Z,12.50
2018-12-21T13:41:21.732Z,12.50
2018-12-21T13:42:26.898Z,12.40
2018-12-21T13:43:31.102Z,12.40
2018-12-21T13:44:35.175Z,12.40
2018-12-21T13:45:39.876Z,12.40
2018-12-21T13:46:44.091Z,12.40
2018-12-21T13:47:48.158Z,12.40
2018-12-21T13:48:52.211Z,12.40
2018-12-21T13:49:56.440Z,12.40
2018-12-21T13:51:00.876Z,12.40
2018-12-21T13:52:04.961Z,12.40
2018-12-21T13:53:09.106Z,12.40
2018-12-21T13:54:13.251Z,12.40
2018-12-21T13:55:20.526Z,12.40
2018-12-21T13:56:23.454Z,12.40
2018-12-21T13:57:27.545Z,12.40
2018-12-21T13:58:31.964Z,12.50
2018-12-21T13:59:36.013Z,12.50
2018-12-21T14:00:40.575Z,12.50
2018-12-21T14:01:44.674Z,12.50
2018-12-21T14:02:48.784Z,12.50
2018-12-21T14:03:52.848Z,12.50
2018-12-21T14:04:57.077Z,12.60
2018-12-21T14:06:01.776Z,12.50
2018-12-21T14:07:05.925Z,12.60
2018-12-21T14:08:10.023Z,12.60
2018-12-21T14:09:14.154Z,12.70
2018-12-21T14:10:36.395Z,12.70
2018-12-21T14:11:40.644Z,12.70
2018-12-21T14:12:44.908Z,12.70
2018-12-21T14:13:49.013Z,12.80